Nyk Atlas — H8TS — position and weather

sailwx.info

Track history (hours):
 
Tides and Currents Weather Stations Pressure Air Temp Water Temp Dewpoint Dewpoint Depression Visibility Wind Speed Wind Dir Waves Ship Positions

Nyk Atlas

Last reported at 2018-Aug-11 20:20 UTC. Time now 2018-Aug-17 11:40 UTC.
Position N 31°05' E 122°35'.

Length 299.9 m; beam 40.1 m.

Type: Ship (hazmat cat D). MMSI: 354614000.

Date/timePositionNaut miles runAvg speedWind from/ knotsBaromVisibWave heightAir tempDewpointWater temp
2018-Aug-11 20:20N 31°05' E 122°35'513.9
2018-Aug-11 20:00N 31°05' E 122°29'611.3
2018-Aug-11 19:30N 31°06' E 122°23'713.9
2018-Aug-11 19:01N 31°08' E 122°15'815.2
2018-Aug-11 18:30N 31°13' E 122°08'714.9
2018-Aug-11 18:01N 31°15' E 121°59'713.2
2018-Aug-11 17:30N 31°16' E 121°52'612.2
2018-Aug-11 17:00N 31°18' E 121°45'9 0.3
2018-Aug-10 13:58N 31°16' E 121°55'713.1
2018-Aug-10 13:27N 31°14' E 122°03'713.1
2018-Aug-10 12:53N 31°11' E 122°11'612.9
2018-Aug-10 12:27N 31°07' E 122°16'511.1
2018-Aug-10 12:00N 31°06' E 122°22'611.0
2018-Aug-10 11:29N 31°08' E 122°28'4 8.7
2018-Aug-10 10:59N 31°11' E 122°32'4 7.9
2018-Aug-10 10:30N 31°13' E 122°35'1 0.0
2018-Aug-09 03:48N 31°15' E 122°35'0 0.0
2018-Aug-07 03:24N 31°15' E 122°35'0 0.0
2018-Aug-06 17:30N 31°15' E 122°35'0 0.0
2018-Aug-06 15:18N 31°15' E 122°35'0 0.1
2018-Aug-06 14:57N 31°15' E 122°35'0 0.0
2018-Aug-06 14:30N 31°15' E 122°35'0 0.1
2018-Aug-06 11:09N 31°15' E 122°35'0 0.1
2018-Aug-06 10:06N 31°15' E 122°35'0 0.0
2018-Aug-06 09:54N 31°15' E 122°35'  
2018-Aug-03 17:55N 34°59' E 128°49'3 7.2
2018-Aug-03 17:30N 34°57' E 128°52'0 0.6
2018-Aug-03 16:50N 34°57' E 128°52'3 4.3
2018-Aug-03 16:04N 34°57' E 128°56'0 6.8
2018-Aug-03 16:00N 34°58' E 128°57'3 6.5
2018-Aug-03 15:29N 34°58' E 129°01'3 6.4
2018-Aug-03 15:00N 34°58' E 129°05'5 9.4
2018-Aug-03 14:30N 35°00' E 129°10'612.7
2018-Aug-03 14:00N 35°02' E 129°17'  
Track history (hours):
 
Tides and Currents Weather Stations Pressure Air Temp Water Temp Dewpoint Dewpoint Depression Visibility Wind Speed Wind Dir Waves Ship Positions

Nyk Atlas

Last reported at 2018-Aug-11 20:20 UTC. Time now 2018-Aug-17 11:40 UTC.
Position N 31°05' E 122°35'.

Length 299.9 m; beam 40.1 m.

Type: Ship (hazmat cat D). MMSI: 354614000.

Date/timePositionNaut miles runAvg speedWind from/ knotsBaromVisibWave heightAir tempDewpointWater temp
2018-Aug-11 20:20N 31°05' E 122°35'513.9
2018-Aug-11 20:00N 31°05' E 122°29'611.3
2018-Aug-11 19:30N 31°06' E 122°23'713.9
2018-Aug-11 19:01N 31°08' E 122°15'815.2
2018-Aug-11 18:30N 31°13' E 122°08'714.9
2018-Aug-11 18:01N 31°15' E 121°59'713.2
2018-Aug-11 17:30N 31°16' E 121°52'612.2
2018-Aug-11 17:00N 31°18' E 121°45'9 0.3
2018-Aug-10 13:58N 31°16' E 121°55'713.1
2018-Aug-10 13:27N 31°14' E 122°03'713.1
2018-Aug-10 12:53N 31°11' E 122°11'612.9
2018-Aug-10 12:27N 31°07' E 122°16'511.1
2018-Aug-10 12:00N 31°06' E 122°22'611.0
2018-Aug-10 11:29N 31°08' E 122°28'4 8.7
2018-Aug-10 10:59N 31°11' E 122°32'4 7.9
2018-Aug-10 10:30N 31°13' E 122°35'1 0.0
2018-Aug-09 03:48N 31°15' E 122°35'0 0.0
2018-Aug-07 03:24N 31°15' E 122°35'0 0.0
2018-Aug-06 17:30N 31°15' E 122°35'0 0.0
2018-Aug-06 15:18N 31°15' E 122°35'0 0.1
2018-Aug-06 14:57N 31°15' E 122°35'0 0.0
2018-Aug-06 14:30N 31°15' E 122°35'0 0.1
2018-Aug-06 11:09N 31°15' E 122°35'0 0.1
2018-Aug-06 10:06N 31°15' E 122°35'0 0.0
2018-Aug-06 09:54N 31°15' E 122°35'  
2018-Aug-03 17:55N 34°59' E 128°49'3 7.2
2018-Aug-03 17:30N 34°57' E 128°52'0 0.6
2018-Aug-03 16:50N 34°57' E 128°52'3 4.3
2018-Aug-03 16:04N 34°57' E 128°56'0 6.8
2018-Aug-03 16:00N 34°58' E 128°57'3 6.5
2018-Aug-03 15:29N 34°58' E 129°01'3 6.4
2018-Aug-03 15:00N 34°58' E 129°05'5 9.4
2018-Aug-03 14:30N 35°00' E 129°10'612.7
2018-Aug-03 14:00N 35°02' E 129°17'  

Dump ship's entire track history